sensor_id;sensor_type;location;lat;lon;timestamp;P1;durP1;ratioP1;P2;durP2;ratioP2
30729;SDS011;17476;48.458;7.928;2023-02-12T00:01:08;0.40;;;0.40;;
30729;SDS011;17476;48.458;7.928;2023-02-12T00:03:36;0.40;;;0.40;;
30729;SDS011;17476;48.458;7.928;2023-02-12T00:06:03;0.40;;;0.40;;
30729;SDS011;17476;48.458;7.928;2023-02-12T00:08:30;0.33;;;0.33;;
30729;SDS011;17476;48.458;7.928;2023-02-12T00:10:56;0.40;;;0.40;;
30729;SDS011;17476;48.458;7.928;2023-02-12T00:13:22;0.30;;;0.30;;
30729;SDS011;17476;48.458;7.928;2023-02-12T00:15:48;0.27;;;0.27;;
30729;SDS011;17476;48.458;7.928;2023-02-12T00:18:14;0.40;;;0.40;;
30729;SDS011;17476;48.458;7.928;2023-02-12T00:20:40;0.40;;;0.40;;
30729;SDS011;17476;48.458;7.928;2023-02-12T00:23:06;0.30;;;0.30;;
30729;SDS011;17476;48.458;7.928;2023-02-12T00:25:32;0.30;;;0.30;;
30729;SDS011;17476;48.458;7.928;2023-02-12T00:27:58;0.30;;;0.30;;
30729;SDS011;17476;48.458;7.928;2023-02-12T00:30:24;0.37;;;0.37;;
30729;SDS011;17476;48.458;7.928;2023-02-12T00:32:50;0.30;;;0.30;;
30729;SDS011;17476;48.458;7.928;2023-02-12T00:35:16;0.40;;;0.40;;
30729;SDS011;17476;48.458;7.928;2023-02-12T00:37:42;0.30;;;0.30;;
30729;SDS011;17476;48.458;7.928;2023-02-12T00:40:08;0.40;;;0.40;;
30729;SDS011;17476;48.458;7.928;2023-02-12T00:42:35;0.40;;;0.40;;
30729;SDS011;17476;48.458;7.928;2023-02-12T00:45:01;0.30;;;0.30;;
30729;SDS011;17476;48.458;7.928;2023-02-12T00:47:26;0.30;;;0.30;;
30729;SDS011;17476;48.458;7.928;2023-02-12T00:49:52;0.30;;;0.30;;
30729;SDS011;17476;48.458;7.928;2023-02-12T00:52:18;0.20;;;0.20;;
30729;SDS011;17476;48.458;7.928;2023-02-12T00:54:44;0.30;;;0.30;;
30729;SDS011;17476;48.458;7.928;2023-02-12T00:57:10;0.40;;;0.40;;
30729;SDS011;17476;48.458;7.928;2023-02-12T00:59:35;0.40;;;0.40;;
30729;SDS011;17476;48.458;7.928;2023-02-12T01:02:04;0.30;;;0.30;;
30729;SDS011;17476;48.458;7.928;2023-02-12T01:04:30;0.33;;;0.33;;
30729;SDS011;17476;48.458;7.928;2023-02-12T01:06:55;0.40;;;0.40;;
30729;SDS011;17476;48.458;7.928;2023-02-12T01:09:21;0.30;;;0.30;;
30729;SDS011;17476;48.458;7.928;2023-02-12T01:11:47;0.30;;;0.30;;
30729;SDS011;17476;48.458;7.928;2023-02-12T01:14:13;0.30;;;0.30;;
30729;SDS011;17476;48.458;7.928;2023-02-12T01:16:39;0.40;;;0.40;;
30729;SDS011;17476;48.458;7.928;2023-02-12T01:19:05;0.30;;;0.30;;
30729;SDS011;17476;48.458;7.928;2023-02-12T01:21:32;0.40;;;0.40;;
30729;SDS011;17476;48.458;7.928;2023-02-12T01:23:58;0.30;;;0.30;;
30729;SDS011;17476;48.458;7.928;2023-02-12T01:26:26;0.30;;;0.30;;
30729;SDS011;17476;48.458;7.928;2023-02-12T01:28:54;0.30;;;0.30;;
30729;SDS011;17476;48.458;7.928;2023-02-12T01:31:27;0.30;;;0.30;;
30729;SDS011;17476;48.458;7.928;2023-02-12T01:33:55;0.40;;;0.40;;
30729;SDS011;17476;48.458;7.928;2023-02-12T01:36:23;0.30;;;0.30;;
30729;SDS011;17476;48.458;7.928;2023-02-12T01:38:51;0.30;;;0.30;;
30729;SDS011;17476;48.458;7.928;2023-02-12T01:41:18;0.40;;;0.40;;
30729;SDS011;17476;48.458;7.928;2023-02-12T01:44:07;0.30;;;0.30;;
30729;SDS011;17476;48.458;7.928;2023-02-12T01:46:38;0.30;;;0.30;;
30729;SDS011;17476;48.458;7.928;2023-02-12T01:49:07;0.30;;;0.30;;
30729;SDS011;17476;48.458;7.928;2023-02-12T01:51:40;0.27;;;0.27;;
30729;SDS011;17476;48.458;7.928;2023-02-12T01:54:07;0.30;;;0.30;;
30729;SDS011;17476;48.458;7.928;2023-02-12T01:56:37;0.30;;;0.30;;
30729;SDS011;17476;48.458;7.928;2023-02-12T01:59:04;0.30;;;0.30;;
30729;SDS011;17476;48.458;7.928;2023-02-12T02:01:31;0.30;;;0.30;;
30729;SDS011;17476;48.458;7.928;2023-02-12T02:03:59;0.30;;;0.30;;
30729;SDS011;17476;48.458;7.928;2023-02-12T02:06:37;0.30;;;0.30;;
30729;SDS011;17476;48.458;7.928;2023-02-12T02:09:16;0.30;;;0.30;;
30729;SDS011;17476;48.458;7.928;2023-02-12T02:11:43;0.30;;;0.30;;
30729;SDS011;17476;48.458;7.928;2023-02-12T02:14:28;0.30;;;0.30;;
30729;SDS011;17476;48.458;7.928;2023-02-12T02:17:03;0.40;;;0.40;;
30729;SDS011;17476;48.458;7.928;2023-02-12T02:31:32;0.30;;;0.30;;
30729;SDS011;17476;48.458;7.928;2023-02-12T02:40:06;0.40;;;0.40;;
30729;SDS011;17476;48.458;7.928;2023-02-12T02:43:14;0.30;;;0.30;;
30729;SDS011;17476;48.458;7.928;2023-02-12T02:45:47;0.30;;;0.30;;
30729;SDS011;17476;48.458;7.928;2023-02-12T02:50:58;0.40;;;0.40;;
30729;SDS011;17476;48.458;7.928;2023-02-12T02:53:44;0.30;;;0.30;;
30729;SDS011;17476;48.458;7.928;2023-02-12T02:56:19;0.40;;;0.40;;
30729;SDS011;17476;48.458;7.928;2023-02-12T02:58:50;0.40;;;0.40;;
30729;SDS011;17476;48.458;7.928;2023-02-12T03:01:38;0.40;;;0.40;;
30729;SDS011;17476;48.458;7.928;2023-02-12T03:04:14;0.30;;;0.30;;
30729;SDS011;17476;48.458;7.928;2023-02-12T03:06:55;0.30;;;0.30;;
30729;SDS011;17476;48.458;7.928;2023-02-12T03:09:35;0.30;;;0.30;;
30729;SDS011;17476;48.458;7.928;2023-02-12T03:12:11;0.40;;;0.40;;
30729;SDS011;17476;48.458;7.928;2023-02-12T03:14:48;0.30;;;0.30;;
30729;SDS011;17476;48.458;7.928;2023-02-12T03:17:29;0.30;;;0.30;;
30729;SDS011;17476;48.458;7.928;2023-02-12T03:20:10;0.30;;;0.30;;
30729;SDS011;17476;48.458;7.928;2023-02-12T03:23:11;0.30;;;0.30;;
30729;SDS011;17476;48.458;7.928;2023-02-12T03:25:47;0.40;;;0.40;;
30729;SDS011;17476;48.458;7.928;2023-02-12T03:28:24;0.40;;;0.40;;
30729;SDS011;17476;48.458;7.928;2023-02-12T03:40:14;0.40;;;0.40;;
30729;SDS011;17476;48.458;7.928;2023-02-12T03:45:28;0.33;;;0.33;;
30729;SDS011;17476;48.458;7.928;2023-02-12T03:50:39;0.37;;;0.37;;
30729;SDS011;17476;48.458;7.928;2023-02-12T03:53:27;0.30;;;0.30;;
30729;SDS011;17476;48.458;7.928;2023-02-12T03:55:57;0.40;;;0.40;;
30729;SDS011;17476;48.458;7.928;2023-02-12T03:58:31;0.30;;;0.30;;
30729;SDS011;17476;48.458;7.928;2023-02-12T04:01:00;0.40;;;0.40;;
30729;SDS011;17476;48.458;7.928;2023-02-12T04:03:28;0.40;;;0.40;;
30729;SDS011;17476;48.458;7.928;2023-02-12T04:05:55;0.30;;;0.30;;
30729;SDS011;17476;48.458;7.928;2023-02-12T04:08:21;0.30;;;0.30;;
30729;SDS011;17476;48.458;7.928;2023-02-12T04:16:27;0.40;;;0.40;;
30729;SDS011;17476;48.458;7.928;2023-02-12T04:19:02;0.30;;;0.30;;
30729;SDS011;17476;48.458;7.928;2023-02-12T04:21:42;0.40;;;0.40;;
30729;SDS011;17476;48.458;7.928;2023-02-12T04:24:57;0.30;;;0.30;;
30729;SDS011;17476;48.458;7.928;2023-02-12T04:34:04;0.30;;;0.30;;
30729;SDS011;17476;48.458;7.928;2023-02-12T04:36:58;0.20;;;0.20;;
30729;SDS011;17476;48.458;7.928;2023-02-12T04:39:35;0.30;;;0.30;;
30729;SDS011;17476;48.458;7.928;2023-02-12T04:42:04;0.40;;;0.40;;
30729;SDS011;17476;48.458;7.928;2023-02-12T04:44:31;0.30;;;0.30;;
30729;SDS011;17476;48.458;7.928;2023-02-12T04:47:01;0.30;;;0.30;;
30729;SDS011;17476;48.458;7.928;2023-02-12T04:49:27;0.40;;;0.40;;
30729;SDS011;17476;48.458;7.928;2023-02-12T04:51:53;0.30;;;0.30;;
30729;SDS011;17476;48.458;7.928;2023-02-12T04:54:20;0.30;;;0.30;;
30729;SDS011;17476;48.458;7.928;2023-02-12T04:56:47;0.33;;;0.33;;
30729;SDS011;17476;48.458;7.928;2023-02-12T04:59:14;0.40;;;0.40;;
30729;SDS011;17476;48.458;7.928;2023-02-12T05:01:40;0.20;;;0.20;;
30729;SDS011;17476;48.458;7.928;2023-02-12T05:04:09;0.30;;;0.30;;
30729;SDS011;17476;48.458;7.928;2023-02-12T05:06:38;0.30;;;0.30;;
30729;SDS011;17476;48.458;7.928;2023-02-12T05:09:05;0.30;;;0.30;;
30729;SDS011;17476;48.458;7.928;2023-02-12T05:11:32;0.30;;;0.30;;
30729;SDS011;17476;48.458;7.928;2023-02-12T05:13:58;0.30;;;0.30;;
30729;SDS011;17476;48.458;7.928;2023-02-12T05:16:24;0.40;;;0.40;;
30729;SDS011;17476;48.458;7.928;2023-02-12T05:18:50;0.30;;;0.30;;
30729;SDS011;17476;48.458;7.928;2023-02-12T05:21:16;0.30;;;0.30;;
30729;SDS011;17476;48.458;7.928;2023-02-12T05:23:42;0.30;;;0.30;;
30729;SDS011;17476;48.458;7.928;2023-02-12T05:26:10;0.40;;;0.40;;
30729;SDS011;17476;48.458;7.928;2023-02-12T05:28:39;0.30;;;0.30;;
30729;SDS011;17476;48.458;7.928;2023-02-12T05:31:06;0.40;;;0.40;;
30729;SDS011;17476;48.458;7.928;2023-02-12T05:33:34;0.40;;;0.40;;
30729;SDS011;17476;48.458;7.928;2023-02-12T05:36:04;0.30;;;0.30;;
30729;SDS011;17476;48.458;7.928;2023-02-12T05:38:31;0.30;;;0.30;;
30729;SDS011;17476;48.458;7.928;2023-02-12T05:41:04;0.37;;;0.37;;
30729;SDS011;17476;48.458;7.928;2023-02-12T05:43:33;0.30;;;0.30;;
30729;SDS011;17476;48.458;7.928;2023-02-12T05:46:00;0.30;;;0.30;;
30729;SDS011;17476;48.458;7.928;2023-02-12T05:48:28;0.33;;;0.33;;
30729;SDS011;17476;48.458;7.928;2023-02-12T05:51:28;0.30;;;0.30;;
30729;SDS011;17476;48.458;7.928;2023-02-12T05:53:50;0.30;;;0.30;;
30729;SDS011;17476;48.458;7.928;2023-02-12T05:56:22;0.33;;;0.33;;
30729;SDS011;17476;48.458;7.928;2023-02-12T05:58:55;0.30;;;0.30;;
30729;SDS011;17476;48.458;7.928;2023-02-12T06:01:31;0.30;;;0.30;;
30729;SDS011;17476;48.458;7.928;2023-02-12T06:04:04;0.40;;;0.40;;
30729;SDS011;17476;48.458;7.928;2023-02-12T06:06:32;0.40;;;0.40;;
30729;SDS011;17476;48.458;7.928;2023-02-12T06:08:59;0.30;;;0.30;;
30729;SDS011;17476;48.458;7.928;2023-02-12T06:11:25;0.30;;;0.30;;
30729;SDS011;17476;48.458;7.928;2023-02-12T06:13:52;0.30;;;0.30;;
30729;SDS011;17476;48.458;7.928;2023-02-12T06:16:24;0.30;;;0.30;;
30729;SDS011;17476;48.458;7.928;2023-02-12T06:18:52;0.30;;;0.30;;
30729;SDS011;17476;48.458;7.928;2023-02-12T06:21:20;0.30;;;0.30;;
30729;SDS011;17476;48.458;7.928;2023-02-12T06:23:48;0.40;;;0.40;;
30729;SDS011;17476;48.458;7.928;2023-02-12T06:26:14;0.40;;;0.40;;
30729;SDS011;17476;48.458;7.928;2023-02-12T06:28:40;0.30;;;0.30;;
30729;SDS011;17476;48.458;7.928;2023-02-12T06:31:26;0.40;;;0.40;;
30729;SDS011;17476;48.458;7.928;2023-02-12T06:33:56;0.40;;;0.40;;
30729;SDS011;17476;48.458;7.928;2023-02-12T06:36:25;0.20;;;0.20;;
30729;SDS011;17476;48.458;7.928;2023-02-12T06:38:51;0.30;;;0.30;;
30729;SDS011;17476;48.458;7.928;2023-02-12T06:41:17;0.33;;;0.33;;
30729;SDS011;17476;48.458;7.928;2023-02-12T06:43:43;0.33;;;0.33;;
30729;SDS011;17476;48.458;7.928;2023-02-12T06:46:09;0.40;;;0.40;;
30729;SDS011;17476;48.458;7.928;2023-02-12T06:48:35;0.37;;;0.37;;
30729;SDS011;17476;48.458;7.928;2023-02-12T06:51:08;0.30;;;0.30;;
30729;SDS011;17476;48.458;7.928;2023-02-12T06:53:40;0.40;;;0.40;;
30729;SDS011;17476;48.458;7.928;2023-02-12T06:56:08;0.30;;;0.30;;
30729;SDS011;17476;48.458;7.928;2023-02-12T06:58:42;0.33;;;0.33;;
30729;SDS011;17476;48.458;7.928;2023-02-12T07:01:13;0.30;;;0.30;;
30729;SDS011;17476;48.458;7.928;2023-02-12T07:03:43;0.40;;;0.40;;
30729;SDS011;17476;48.458;7.928;2023-02-12T07:06:14;0.40;;;0.40;;
30729;SDS011;17476;48.458;7.928;2023-02-12T07:08:40;0.30;;;0.30;;
30729;SDS011;17476;48.458;7.928;2023-02-12T07:11:06;0.40;;;0.40;;
30729;SDS011;17476;48.458;7.928;2023-02-12T07:13:32;0.40;;;0.40;;
30729;SDS011;17476;48.458;7.928;2023-02-12T07:16:02;0.40;;;0.40;;
30729;SDS011;17476;48.458;7.928;2023-02-12T07:18:33;0.30;;;0.30;;
30729;SDS011;17476;48.458;7.928;2023-02-12T07:21:00;0.30;;;0.30;;
30729;SDS011;17476;48.458;7.928;2023-02-12T07:23:28;0.30;;;0.30;;
30729;SDS011;17476;48.458;7.928;2023-02-12T07:25:55;0.30;;;0.30;;
30729;SDS011;17476;48.458;7.928;2023-02-12T07:28:21;0.40;;;0.40;;
30729;SDS011;17476;48.458;7.928;2023-02-12T07:30:48;0.30;;;0.30;;
30729;SDS011;17476;48.458;7.928;2023-02-12T07:33:14;0.40;;;0.40;;
30729;SDS011;17476;48.458;7.928;2023-02-12T07:35:40;0.40;;;0.40;;
30729;SDS011;17476;48.458;7.928;2023-02-12T07:38:06;0.30;;;0.30;;
30729;SDS011;17476;48.458;7.928;2023-02-12T07:40:32;0.30;;;0.30;;
30729;SDS011;17476;48.458;7.928;2023-02-12T07:42:58;0.30;;;0.30;;
30729;SDS011;17476;48.458;7.928;2023-02-12T07:45:23;0.30;;;0.30;;
30729;SDS011;17476;48.458;7.928;2023-02-12T07:47:49;0.30;;;0.30;;
30729;SDS011;17476;48.458;7.928;2023-02-12T07:50:15;0.40;;;0.40;;
30729;SDS011;17476;48.458;7.928;2023-02-12T07:52:42;0.40;;;0.40;;
30729;SDS011;17476;48.458;7.928;2023-02-12T07:55:08;0.30;;;0.30;;
30729;SDS011;17476;48.458;7.928;2023-02-12T07:57:34;0.30;;;0.30;;
30729;SDS011;17476;48.458;7.928;2023-02-12T08:00:00;0.30;;;0.30;;
30729;SDS011;17476;48.458;7.928;2023-02-12T08:02:28;0.30;;;0.30;;
30729;SDS011;17476;48.458;7.928;2023-02-12T08:04:55;0.40;;;0.40;;
30729;SDS011;17476;48.458;7.928;2023-02-12T08:07:22;0.40;;;0.40;;
30729;SDS011;17476;48.458;7.928;2023-02-12T08:09:48;0.30;;;0.30;;
30729;SDS011;17476;48.458;7.928;2023-02-12T08:12:15;0.30;;;0.30;;
30729;SDS011;17476;48.458;7.928;2023-02-12T08:14:42;0.40;;;0.40;;
30729;SDS011;17476;48.458;7.928;2023-02-12T08:17:09;0.20;;;0.20;;
30729;SDS011;17476;48.458;7.928;2023-02-12T08:19:35;0.30;;;0.30;;
30729;SDS011;17476;48.458;7.928;2023-02-12T08:22:01;0.30;;;0.30;;
30729;SDS011;17476;48.458;7.928;2023-02-12T08:24:28;0.30;;;0.30;;
30729;SDS011;17476;48.458;7.928;2023-02-12T08:26:54;0.20;;;0.20;;
30729;SDS011;17476;48.458;7.928;2023-02-12T08:29:22;0.20;;;0.20;;
30729;SDS011;17476;48.458;7.928;2023-02-12T08:31:55;0.30;;;0.30;;
30729;SDS011;17476;48.458;7.928;2023-02-12T08:34:30;0.13;;;0.13;;
30729;SDS011;17476;48.458;7.928;2023-02-12T08:36:59;0.20;;;0.20;;
30729;SDS011;17476;48.458;7.928;2023-02-12T08:39:27;0.20;;;0.20;;
30729;SDS011;17476;48.458;7.928;2023-02-12T08:41:54;0.27;;;0.27;;
30729;SDS011;17476;48.458;7.928;2023-02-12T08:44:22;0.20;;;0.20;;
30729;SDS011;17476;48.458;7.928;2023-02-12T08:46:49;0.10;;;0.10;;
30729;SDS011;17476;48.458;7.928;2023-02-12T08:49:17;0.13;;;0.13;;
30729;SDS011;17476;48.458;7.928;2023-02-12T08:51:46;0.20;;;0.20;;
30729;SDS011;17476;48.458;7.928;2023-02-12T08:54:16;0.10;;;0.10;;
30729;SDS011;17476;48.458;7.928;2023-02-12T08:56:44;0.20;;;0.20;;
30729;SDS011;17476;48.458;7.928;2023-02-12T08:59:11;0.20;;;0.20;;
30729;SDS011;17476;48.458;7.928;2023-02-12T09:01:39;0.10;;;0.10;;
30729;SDS011;17476;48.458;7.928;2023-02-12T09:04:06;0.10;;;0.10;;
30729;SDS011;17476;48.458;7.928;2023-02-12T09:06:41;0.10;;;0.10;;
30729;SDS011;17476;48.458;7.928;2023-02-12T09:09:08;0.20;;;0.20;;
30729;SDS011;17476;48.458;7.928;2023-02-12T09:11:34;0.03;;;0.03;;
30729;SDS011;17476;48.458;7.928;2023-02-12T09:14:03;0.00;;;0.00;;
30729;SDS011;17476;48.458;7.928;2023-02-12T09:16:33;0.10;;;0.10;;
30729;SDS011;17476;48.458;7.928;2023-02-12T09:19:00;0.10;;;0.10;;
30729;SDS011;17476;48.458;7.928;2023-02-12T09:21:27;0.10;;;0.10;;
30729;SDS011;17476;48.458;7.928;2023-02-12T09:23:53;0.10;;;0.10;;
30729;SDS011;17476;48.458;7.928;2023-02-12T09:26:21;0.10;;;0.10;;
30729;SDS011;17476;48.458;7.928;2023-02-12T09:28:49;0.00;;;0.00;;
30729;SDS011;17476;48.458;7.928;2023-02-12T09:31:18;0.10;;;0.10;;
30729;SDS011;17476;48.458;7.928;2023-02-12T09:33:50;0.10;;;0.10;;
30729;SDS011;17476;48.458;7.928;2023-02-12T09:36:23;0.00;;;0.00;;
30729;SDS011;17476;48.458;7.928;2023-02-12T09:38:49;0.10;;;0.10;;
30729;SDS011;17476;48.458;7.928;2023-02-12T09:43:59;0.10;;;0.10;;
30729;SDS011;17476;48.458;7.928;2023-02-12T09:46:31;0.07;;;0.07;;
30729;SDS011;17476;48.458;7.928;2023-02-12T09:49:11;0.00;;;0.00;;
30729;SDS011;17476;48.458;7.928;2023-02-12T09:52:20;0.00;;;0.00;;
30729;SDS011;17476;48.458;7.928;2023-02-12T09:54:50;0.10;;;0.10;;
30729;SDS011;17476;48.458;7.928;2023-02-12T09:59:59;0.10;;;0.10;;
30729;SDS011;17476;48.458;7.928;2023-02-12T10:02:45;0.00;;;0.00;;
30729;SDS011;17476;48.458;7.928;2023-02-12T10:05:50;0.07;;;0.07;;
30729;SDS011;17476;48.458;7.928;2023-02-12T10:10:52;0.10;;;0.10;;
30729;SDS011;17476;48.458;7.928;2023-02-12T10:19:22;0.00;;;0.00;;
30729;SDS011;17476;48.458;7.928;2023-02-12T10:22:19;0.10;;;0.10;;
30729;SDS011;17476;48.458;7.928;2023-02-12T10:25:40;0.10;;;0.10;;
30729;SDS011;17476;48.458;7.928;2023-02-12T10:33:40;0.00;;;0.00;;
30729;SDS011;17476;48.458;7.928;2023-02-12T10:39:26;0.00;;;0.00;;
30729;SDS011;17476;48.458;7.928;2023-02-12T10:42:18;0.10;;;0.10;;
30729;SDS011;17476;48.458;7.928;2023-02-12T10:45:13;0.10;;;0.10;;
30729;SDS011;17476;48.458;7.928;2023-02-12T10:47:47;0.00;;;0.00;;
30729;SDS011;17476;48.458;7.928;2023-02-12T10:50:38;0.10;;;0.10;;
30729;SDS011;17476;48.458;7.928;2023-02-12T10:53:17;0.10;;;0.10;;
30729;SDS011;17476;48.458;7.928;2023-02-12T10:58:51;0.00;;;0.00;;
30729;SDS011;17476;48.458;7.928;2023-02-12T11:01:20;0.00;;;0.00;;
30729;SDS011;17476;48.458;7.928;2023-02-12T11:06:59;0.07;;;0.07;;
30729;SDS011;17476;48.458;7.928;2023-02-12T11:09:31;0.10;;;0.10;;
30729;SDS011;17476;48.458;7.928;2023-02-12T11:12:00;0.00;;;0.00;;
30729;SDS011;17476;48.458;7.928;2023-02-12T11:14:27;0.00;;;0.00;;
30729;SDS011;17476;48.458;7.928;2023-02-12T11:16:54;0.00;;;0.00;;
30729;SDS011;17476;48.458;7.928;2023-02-12T11:19:23;0.10;;;0.10;;
30729;SDS011;17476;48.458;7.928;2023-02-12T11:22:11;0.10;;;0.10;;
30729;SDS011;17476;48.458;7.928;2023-02-12T11:24:42;0.20;;;0.20;;
30729;SDS011;17476;48.458;7.928;2023-02-12T11:27:23;0.00;;;0.00;;
30729;SDS011;17476;48.458;7.928;2023-02-12T11:32:49;0.10;;;0.10;;
30729;SDS011;17476;48.458;7.928;2023-02-12T11:35:20;0.10;;;0.10;;
30729;SDS011;17476;48.458;7.928;2023-02-12T11:37:50;0.00;;;0.00;;
30729;SDS011;17476;48.458;7.928;2023-02-12T11:40:23;0.10;;;0.10;;
30729;SDS011;17476;48.458;7.928;2023-02-12T11:42:56;0.10;;;0.10;;
30729;SDS011;17476;48.458;7.928;2023-02-12T11:45:36;0.10;;;0.10;;
30729;SDS011;17476;48.458;7.928;2023-02-12T11:50:52;0.00;;;0.00;;
30729;SDS011;17476;48.458;7.928;2023-02-12T11:53:23;0.10;;;0.10;;
30729;SDS011;17476;48.458;7.928;2023-02-12T11:56:01;0.10;;;0.10;;
30729;SDS011;17476;48.458;7.928;2023-02-12T11:58:31;0.00;;;0.00;;
30729;SDS011;17476;48.458;7.928;2023-02-12T12:06:54;0.00;;;0.00;;
30729;SDS011;17476;48.458;7.928;2023-02-12T12:09:29;0.10;;;0.10;;
30729;SDS011;17476;48.458;7.928;2023-02-12T12:15:31;0.10;;;0.10;;
30729;SDS011;17476;48.458;7.928;2023-02-12T12:18:36;0.10;;;0.10;;
30729;SDS011;17476;48.458;7.928;2023-02-12T12:21:40;0.00;;;0.00;;
30729;SDS011;17476;48.458;7.928;2023-02-12T12:24:37;0.10;;;0.10;;
30729;SDS011;17476;48.458;7.928;2023-02-12T12:27:11;0.10;;;0.10;;
30729;SDS011;17476;48.458;7.928;2023-02-12T12:30:25;0.10;;;0.10;;
30729;SDS011;17476;48.458;7.928;2023-02-12T12:39:19;0.07;;;0.07;;
30729;SDS011;17476;48.458;7.928;2023-02-12T12:48:47;0.20;;;0.20;;
30729;SDS011;17476;48.458;7.928;2023-02-12T12:51:40;0.00;;;0.00;;
30729;SDS011;17476;48.458;7.928;2023-02-12T12:54:46;0.10;;;0.10;;
30729;SDS011;17476;48.458;7.928;2023-02-12T13:12:12;0.00;;;0.00;;
30729;SDS011;17476;48.458;7.928;2023-02-12T13:20:37;0.10;;;0.10;;
30729;SDS011;17476;48.458;7.928;2023-02-12T13:23:27;0.10;;;0.10;;
30729;SDS011;17476;48.458;7.928;2023-02-12T13:27:09;0.10;;;0.10;;
30729;SDS011;17476;48.458;7.928;2023-02-12T13:31:56;0.17;;;0.17;;
30729;SDS011;17476;48.458;7.928;2023-02-12T13:34:29;0.00;;;0.00;;
30729;SDS011;17476;48.458;7.928;2023-02-12T13:37:02;0.00;;;0.00;;
30729;SDS011;17476;48.458;7.928;2023-02-12T13:39:31;0.10;;;0.10;;
30729;SDS011;17476;48.458;7.928;2023-02-12T13:50:53;0.10;;;0.10;;
30729;SDS011;17476;48.458;7.928;2023-02-12T13:54:02;0.10;;;0.10;;
30729;SDS011;17476;48.458;7.928;2023-02-12T13:56:49;0.00;;;0.00;;
30729;SDS011;17476;48.458;7.928;2023-02-12T14:04:45;0.00;;;0.00;;
30729;SDS011;17476;48.458;7.928;2023-02-12T14:07:16;0.10;;;0.10;;
30729;SDS011;17476;48.458;7.928;2023-02-12T14:09:44;0.10;;;0.10;;
30729;SDS011;17476;48.458;7.928;2023-02-12T14:12:14;0.10;;;0.10;;
30729;SDS011;17476;48.458;7.928;2023-02-12T14:22:56;0.10;;;0.10;;
30729;SDS011;17476;48.458;7.928;2023-02-12T14:25:54;0.10;;;0.10;;
30729;SDS011;17476;48.458;7.928;2023-02-12T14:28:27;0.10;;;0.10;;
30729;SDS011;17476;48.458;7.928;2023-02-12T14:41:29;0.10;;;0.10;;
30729;SDS011;17476;48.458;7.928;2023-02-12T14:46:57;0.10;;;0.10;;
30729;SDS011;17476;48.458;7.928;2023-02-12T14:54:55;0.10;;;0.10;;
30729;SDS011;17476;48.458;7.928;2023-02-12T14:57:32;0.07;;;0.07;;
30729;SDS011;17476;48.458;7.928;2023-02-12T15:02:43;0.10;;;0.10;;
30729;SDS011;17476;48.458;7.928;2023-02-12T15:05:40;0.10;;;0.10;;
30729;SDS011;17476;48.458;7.928;2023-02-12T15:16:55;0.00;;;0.00;;
30729;SDS011;17476;48.458;7.928;2023-02-12T15:19:45;0.10;;;0.10;;
30729;SDS011;17476;48.458;7.928;2023-02-12T15:22:31;0.10;;;0.10;;
30729;SDS011;17476;48.458;7.928;2023-02-12T15:30:29;0.10;;;0.10;;
30729;SDS011;17476;48.458;7.928;2023-02-12T15:33:00;0.10;;;0.10;;
30729;SDS011;17476;48.458;7.928;2023-02-12T15:35:31;0.10;;;0.10;;
30729;SDS011;17476;48.458;7.928;2023-02-12T15:38:03;0.00;;;0.00;;
30729;SDS011;17476;48.458;7.928;2023-02-12T15:40:35;0.10;;;0.10;;
30729;SDS011;17476;48.458;7.928;2023-02-12T15:43:02;0.10;;;0.10;;
30729;SDS011;17476;48.458;7.928;2023-02-12T15:45:31;0.20;;;0.20;;
30729;SDS011;17476;48.458;7.928;2023-02-12T15:48:10;0.10;;;0.10;;
30729;SDS011;17476;48.458;7.928;2023-02-12T15:50:51;0.10;;;0.10;;
30729;SDS011;17476;48.458;7.928;2023-02-12T15:53:19;0.10;;;0.10;;
30729;SDS011;17476;48.458;7.928;2023-02-12T15:55:46;0.10;;;0.10;;
30729;SDS011;17476;48.458;7.928;2023-02-12T15:58:26;0.00;;;0.00;;
30729;SDS011;17476;48.458;7.928;2023-02-12T16:01:05;0.10;;;0.10;;
30729;SDS011;17476;48.458;7.928;2023-02-12T16:03:32;0.10;;;0.10;;
30729;SDS011;17476;48.458;7.928;2023-02-12T16:06:10;0.10;;;0.10;;
30729;SDS011;17476;48.458;7.928;2023-02-12T16:08:41;0.10;;;0.10;;
30729;SDS011;17476;48.458;7.928;2023-02-12T16:11:12;0.10;;;0.10;;
30729;SDS011;17476;48.458;7.928;2023-02-12T16:13:46;0.10;;;0.10;;
30729;SDS011;17476;48.458;7.928;2023-02-12T16:16:18;0.10;;;0.10;;
30729;SDS011;17476;48.458;7.928;2023-02-12T16:21:52;0.10;;;0.10;;
30729;SDS011;17476;48.458;7.928;2023-02-12T16:24:33;0.20;;;0.20;;
30729;SDS011;17476;48.458;7.928;2023-02-12T16:29:49;0.10;;;0.10;;
30729;SDS011;17476;48.458;7.928;2023-02-12T16:33:01;0.10;;;0.10;;
30729;SDS011;17476;48.458;7.928;2023-02-12T16:50:33;0.10;;;0.10;;
30729;SDS011;17476;48.458;7.928;2023-02-12T16:53:21;0.10;;;0.10;;
30729;SDS011;17476;48.458;7.928;2023-02-12T16:55:56;0.10;;;0.10;;
30729;SDS011;17476;48.458;7.928;2023-02-12T16:58:23;0.10;;;0.10;;
30729;SDS011;17476;48.458;7.928;2023-02-12T17:00:53;0.10;;;0.10;;
30729;SDS011;17476;48.458;7.928;2023-02-12T17:03:21;0.10;;;0.10;;
30729;SDS011;17476;48.458;7.928;2023-02-12T17:05:48;0.13;;;0.13;;
30729;SDS011;17476;48.458;7.928;2023-02-12T17:08:17;0.10;;;0.10;;
30729;SDS011;17476;48.458;7.928;2023-02-12T17:10:46;0.10;;;0.10;;
30729;SDS011;17476;48.458;7.928;2023-02-12T17:13:12;0.10;;;0.10;;
30729;SDS011;17476;48.458;7.928;2023-02-12T17:15:41;0.10;;;0.10;;
30729;SDS011;17476;48.458;7.928;2023-02-12T17:18:18;0.17;;;0.17;;
30729;SDS011;17476;48.458;7.928;2023-02-12T17:20:46;0.20;;;0.20;;
30729;SDS011;17476;48.458;7.928;2023-02-12T17:23:22;0.20;;;0.20;;
30729;SDS011;17476;48.458;7.928;2023-02-12T17:25:49;0.10;;;0.10;;
30729;SDS011;17476;48.458;7.928;2023-02-12T17:28:15;0.20;;;0.20;;
30729;SDS011;17476;48.458;7.928;2023-02-12T17:30:41;0.10;;;0.10;;
30729;SDS011;17476;48.458;7.928;2023-02-12T17:33:07;0.20;;;0.20;;
30729;SDS011;17476;48.458;7.928;2023-02-12T17:35:33;0.17;;;0.17;;
30729;SDS011;17476;48.458;7.928;2023-02-12T17:37:59;0.10;;;0.10;;
30729;SDS011;17476;48.458;7.928;2023-02-12T17:40:24;0.20;;;0.20;;
30729;SDS011;17476;48.458;7.928;2023-02-12T17:42:50;0.10;;;0.10;;
30729;SDS011;17476;48.458;7.928;2023-02-12T17:45:16;0.20;;;0.20;;
30729;SDS011;17476;48.458;7.928;2023-02-12T17:47:43;0.30;;;0.30;;
30729;SDS011;17476;48.458;7.928;2023-02-12T17:50:09;0.30;;;0.30;;
30729;SDS011;17476;48.458;7.928;2023-02-12T17:52:38;0.20;;;0.20;;
30729;SDS011;17476;48.458;7.928;2023-02-12T17:55:04;0.13;;;0.13;;
30729;SDS011;17476;48.458;7.928;2023-02-12T17:57:31;0.20;;;0.20;;
30729;SDS011;17476;48.458;7.928;2023-02-12T17:59:57;0.20;;;0.20;;
30729;SDS011;17476;48.458;7.928;2023-02-12T18:02:23;0.20;;;0.20;;
30729;SDS011;17476;48.458;7.928;2023-02-12T18:04:49;0.20;;;0.20;;
30729;SDS011;17476;48.458;7.928;2023-02-12T18:07:15;0.20;;;0.20;;
30729;SDS011;17476;48.458;7.928;2023-02-12T18:09:41;0.20;;;0.20;;
30729;SDS011;17476;48.458;7.928;2023-02-12T18:12:07;0.20;;;0.20;;
30729;SDS011;17476;48.458;7.928;2023-02-12T18:14:32;0.20;;;0.20;;
30729;SDS011;17476;48.458;7.928;2023-02-12T18:16:58;0.20;;;0.20;;
30729;SDS011;17476;48.458;7.928;2023-02-12T18:19:25;0.20;;;0.20;;
30729;SDS011;17476;48.458;7.928;2023-02-12T18:21:52;0.30;;;0.30;;
30729;SDS011;17476;48.458;7.928;2023-02-12T18:24:18;0.30;;;0.30;;
30729;SDS011;17476;48.458;7.928;2023-02-12T18:26:44;0.30;;;0.30;;
30729;SDS011;17476;48.458;7.928;2023-02-12T18:29:10;0.30;;;0.30;;
30729;SDS011;17476;48.458;7.928;2023-02-12T18:31:37;0.20;;;0.20;;
30729;SDS011;17476;48.458;7.928;2023-02-12T18:34:04;0.20;;;0.20;;
30729;SDS011;17476;48.458;7.928;2023-02-12T18:36:30;0.30;;;0.30;;
30729;SDS011;17476;48.458;7.928;2023-02-12T18:38:56;0.40;;;0.40;;
30729;SDS011;17476;48.458;7.928;2023-02-12T18:41:26;0.20;;;0.20;;
30729;SDS011;17476;48.458;7.928;2023-02-12T18:43:55;0.30;;;0.30;;